sensor_id;sensor_type;location;lat;lon;timestamp;pressure;altitude;pressure_sealevel;temperature;humidity
9277;BME280;4676;42.678;23.244;2022-09-29T00:00:41;93248.16;;;15.19;100.00
9277;BME280;4676;42.678;23.244;2022-09-29T00:03:08;93244.91;;;15.17;100.00
9277;BME280;4676;42.678;23.244;2022-09-29T00:05:34;93249.25;;;15.04;100.00
9277;BME280;4676;42.678;23.244;2022-09-29T00:08:01;93248.75;;;14.99;100.00
9277;BME280;4676;42.678;23.244;2022-09-29T00:10:28;93253.38;;;14.94;100.00
9277;BME280;4676;42.678;23.244;2022-09-29T00:12:55;93243.78;;;14.97;100.00
9277;BME280;4676;42.678;23.244;2022-09-29T00:15:23;93255.25;;;14.79;100.00
9277;BME280;4676;42.678;23.244;2022-09-29T00:17:50;93246.63;;;14.69;100.00
9277;BME280;4676;42.678;23.244;2022-09-29T00:20:16;93248.72;;;14.75;100.00
9277;BME280;4676;42.678;23.244;2022-09-29T00:22:43;93251.00;;;14.67;100.00
9277;BME280;4676;42.678;23.244;2022-09-29T00:25:10;93250.72;;;14.59;100.00
9277;BME280;4676;42.678;23.244;2022-09-29T00:27:37;93249.16;;;14.69;100.00
9277;BME280;4676;42.678;23.244;2022-09-29T00:30:04;93251.25;;;14.52;100.00
9277;BME280;4676;42.678;23.244;2022-09-29T00:32:32;93253.63;;;14.42;100.00
9277;BME280;4676;42.678;23.244;2022-09-29T00:34:59;93250.13;;;14.43;100.00
9277;BME280;4676;42.678;23.244;2022-09-29T00:37:26;93248.00;;;14.37;100.00
9277;BME280;4676;42.678;23.244;2022-09-29T00:39:53;93250.56;;;14.37;100.00
9277;BME280;4676;42.678;23.244;2022-09-29T00:42:20;93243.09;;;14.46;100.00
9277;BME280;4676;42.678;23.244;2022-09-29T00:45:10;93236.91;;;14.38;100.00
9277;BME280;4676;42.678;23.244;2022-09-29T00:47:41;93246.75;;;14.30;100.00
9277;BME280;4676;42.678;23.244;2022-09-29T00:50:13;93247.88;;;14.26;100.00
9277;BME280;4676;42.678;23.244;2022-09-29T00:52:44;93249.00;;;14.22;100.00
9277;BME280;4676;42.678;23.244;2022-09-29T00:55:16;93247.38;;;14.21;100.00
9277;BME280;4676;42.678;23.244;2022-09-29T00:57:46;93248.94;;;14.11;100.00
9277;BME280;4676;42.678;23.244;2022-09-29T01:00:15;93262.88;;;14.05;100.00
9277;BME280;4676;42.678;23.244;2022-09-29T01:02:46;93247.00;;;14.14;100.00
9277;BME280;4676;42.678;23.244;2022-09-29T01:05:19;93265.13;;;14.10;100.00
9277;BME280;4676;42.678;23.244;2022-09-29T01:07:47;93256.13;;;14.04;100.00
9277;BME280;4676;42.678;23.244;2022-09-29T01:10:15;93259.41;;;14.06;100.00
9277;BME280;4676;42.678;23.244;2022-09-29T01:12:43;93259.09;;;13.98;100.00
9277;BME280;4676;42.678;23.244;2022-09-29T01:15:12;93250.34;;;14.02;100.00
9277;BME280;4676;42.678;23.244;2022-09-29T01:17:40;93260.53;;;14.02;100.00
9277;BME280;4676;42.678;23.244;2022-09-29T01:20:11;93251.38;;;13.99;100.00
9277;BME280;4676;42.678;23.244;2022-09-29T01:23:11;93258.00;;;14.02;100.00
9277;BME280;4676;42.678;23.244;2022-09-29T01:29:06;93239.75;;;14.08;100.00
9277;BME280;4676;42.678;23.244;2022-09-29T01:31:43;93256.25;;;14.02;100.00
9277;BME280;4676;42.678;23.244;2022-09-29T01:34:19;93245.16;;;14.16;100.00
9277;BME280;4676;42.678;23.244;2022-09-29T01:36:53;93257.56;;;14.08;100.00
9277;BME280;4676;42.678;23.244;2022-09-29T01:39:29;93252.06;;;14.01;100.00
9277;BME280;4676;42.678;23.244;2022-09-29T01:41:59;93264.94;;;14.00;100.00
9277;BME280;4676;42.678;23.244;2022-09-29T01:44:32;93257.06;;;13.90;100.00
9277;BME280;4676;42.678;23.244;2022-09-29T01:47:07;93265.44;;;13.92;100.00
9277;BME280;4676;42.678;23.244;2022-09-29T01:49:38;93268.69;;;13.94;100.00
9277;BME280;4676;42.678;23.244;2022-09-29T01:52:09;93279.28;;;13.88;100.00
9277;BME280;4676;42.678;23.244;2022-09-29T01:54:43;93277.34;;;13.92;100.00
9277;BME280;4676;42.678;23.244;2022-09-29T01:57:14;93274.50;;;13.96;100.00
9277;BME280;4676;42.678;23.244;2022-09-29T01:59:44;93269.09;;;13.88;100.00
9277;BME280;4676;42.678;23.244;2022-09-29T02:02:17;93272.25;;;13.92;100.00
9277;BME280;4676;42.678;23.244;2022-09-29T02:04:51;93262.16;;;13.90;100.00
9277;BME280;4676;42.678;23.244;2022-09-29T02:07:34;93270.44;;;14.07;100.00
9277;BME280;4676;42.678;23.244;2022-09-29T02:10:06;93260.84;;;13.97;100.00
9277;BME280;4676;42.678;23.244;2022-09-29T02:12:37;93274.50;;;14.09;100.00
9277;BME280;4676;42.678;23.244;2022-09-29T02:15:07;93265.63;;;14.15;100.00
9277;BME280;4676;42.678;23.244;2022-09-29T02:17:39;93262.06;;;14.30;100.00
9277;BME280;4676;42.678;23.244;2022-09-29T02:20:10;93261.13;;;14.92;100.00
9277;BME280;4676;42.678;23.244;2022-09-29T02:22:37;93256.06;;;15.27;100.00
9277;BME280;4676;42.678;23.244;2022-09-29T02:25:07;93263.31;;;15.57;100.00
9277;BME280;4676;42.678;23.244;2022-09-29T02:27:34;93263.84;;;15.84;100.00
9277;BME280;4676;42.678;23.244;2022-09-29T02:30:03;93256.13;;;16.08;100.00
9277;BME280;4676;42.678;23.244;2022-09-29T02:32:32;93258.69;;;16.30;100.00
9277;BME280;4676;42.678;23.244;2022-09-29T02:35:04;93260.09;;;16.34;100.00
9277;BME280;4676;42.678;23.244;2022-09-29T02:37:40;93254.66;;;16.39;100.00
9277;BME280;4676;42.678;23.244;2022-09-29T02:40:24;93263.00;;;16.30;100.00
9277;BME280;4676;42.678;23.244;2022-09-29T02:43:22;93260.31;;;16.20;100.00
9277;BME280;4676;42.678;23.244;2022-09-29T02:46:03;93265.88;;;16.03;100.00
9277;BME280;4676;42.678;23.244;2022-09-29T02:48:50;93261.75;;;15.78;100.00
9277;BME280;4676;42.678;23.244;2022-09-29T02:51:26;93269.13;;;15.59;100.00
9277;BME280;4676;42.678;23.244;2022-09-29T02:54:18;93264.97;;;15.45;100.00
9277;BME280;4676;42.678;23.244;2022-09-29T02:56:57;93234.75;;;15.28;100.00
9277;BME280;4676;42.678;23.244;2022-09-29T02:59:32;93220.41;;;15.15;100.00
9277;BME280;4676;42.678;23.244;2022-09-29T03:02:01;93226.38;;;15.02;100.00
9277;BME280;4676;42.678;23.244;2022-09-29T03:04:27;93220.53;;;14.89;100.00
9277;BME280;4676;42.678;23.244;2022-09-29T03:06:56;93221.78;;;14.84;100.00
9277;BME280;4676;42.678;23.244;2022-09-29T03:09:23;93218.13;;;14.75;100.00
9277;BME280;4676;42.678;23.244;2022-09-29T03:11:50;93229.47;;;14.71;100.00
9277;BME280;4676;42.678;23.244;2022-09-29T03:14:16;93234.19;;;14.65;100.00
9277;BME280;4676;42.678;23.244;2022-09-29T03:16:43;93240.63;;;14.58;100.00
9277;BME280;4676;42.678;23.244;2022-09-29T03:19:10;93244.81;;;14.59;100.00
9277;BME280;4676;42.678;23.244;2022-09-29T03:21:36;93251.72;;;14.69;100.00
9277;BME280;4676;42.678;23.244;2022-09-29T03:24:05;93268.81;;;14.80;100.00
9277;BME280;4676;42.678;23.244;2022-09-29T03:26:32;93273.94;;;14.67;100.00
9277;BME280;4676;42.678;23.244;2022-09-29T03:28:58;93275.50;;;14.57;100.00
9277;BME280;4676;42.678;23.244;2022-09-29T03:31:25;93280.72;;;14.56;100.00
9277;BME280;4676;42.678;23.244;2022-09-29T03:33:52;93295.06;;;14.57;100.00
9277;BME280;4676;42.678;23.244;2022-09-29T03:36:18;93280.41;;;14.47;100.00
9277;BME280;4676;42.678;23.244;2022-09-29T03:38:45;93296.31;;;14.51;100.00
9277;BME280;4676;42.678;23.244;2022-09-29T03:41:13;93302.31;;;14.50;100.00
9277;BME280;4676;42.678;23.244;2022-09-29T03:43:41;93295.22;;;14.42;100.00
9277;BME280;4676;42.678;23.244;2022-09-29T03:46:07;93288.69;;;14.38;100.00
9277;BME280;4676;42.678;23.244;2022-09-29T03:48:34;93294.09;;;14.21;100.00
9277;BME280;4676;42.678;23.244;2022-09-29T03:51:01;93285.22;;;14.14;100.00
9277;BME280;4676;42.678;23.244;2022-09-29T03:53:28;93276.63;;;14.15;100.00
9277;BME280;4676;42.678;23.244;2022-09-29T03:55:55;93291.44;;;14.10;100.00
9277;BME280;4676;42.678;23.244;2022-09-29T03:58:23;93284.69;;;14.09;100.00
9277;BME280;4676;42.678;23.244;2022-09-29T04:00:50;93290.28;;;14.01;100.00
9277;BME280;4676;42.678;23.244;2022-09-29T04:03:17;93291.41;;;13.97;100.00
9277;BME280;4676;42.678;23.244;2022-09-29T04:05:44;93279.38;;;13.87;100.00
9277;BME280;4676;42.678;23.244;2022-09-29T04:08:11;93291.28;;;13.74;100.00
9277;BME280;4676;42.678;23.244;2022-09-29T04:10:39;93294.22;;;13.68;100.00
9277;BME280;4676;42.678;23.244;2022-09-29T04:13:06;93294.59;;;13.62;100.00
9277;BME280;4676;42.678;23.244;2022-09-29T04:15:34;93277.22;;;13.68;100.00
9277;BME280;4676;42.678;23.244;2022-09-29T04:18:01;93287.09;;;13.60;100.00
9277;BME280;4676;42.678;23.244;2022-09-29T04:20:28;93276.78;;;13.62;100.00
9277;BME280;4676;42.678;23.244;2022-09-29T04:22:54;93281.94;;;13.47;100.00
9277;BME280;4676;42.678;23.244;2022-09-29T04:25:21;93280.91;;;13.37;100.00
9277;BME280;4676;42.678;23.244;2022-09-29T04:27:48;93271.66;;;13.36;100.00
9277;BME280;4676;42.678;23.244;2022-09-29T04:30:15;93282.53;;;13.38;100.00
9277;BME280;4676;42.678;23.244;2022-09-29T04:32:44;93292.53;;;13.41;100.00
9277;BME280;4676;42.678;23.244;2022-09-29T04:35:10;93282.13;;;13.32;100.00
9277;BME280;4676;42.678;23.244;2022-09-29T04:37:37;93281.06;;;13.22;100.00
9277;BME280;4676;42.678;23.244;2022-09-29T04:40:05;93273.00;;;13.15;100.00
9277;BME280;4676;42.678;23.244;2022-09-29T04:42:32;93286.91;;;13.10;100.00
9277;BME280;4676;42.678;23.244;2022-09-29T04:44:58;93277.56;;;13.10;100.00
9277;BME280;4676;42.678;23.244;2022-09-29T04:47:25;93282.19;;;13.03;100.00
9277;BME280;4676;42.678;23.244;2022-09-29T04:49:53;93278.94;;;13.01;100.00
9277;BME280;4676;42.678;23.244;2022-09-29T04:52:20;93280.56;;;13.02;100.00
9277;BME280;4676;42.678;23.244;2022-09-29T04:54:47;93286.91;;;13.10;100.00
9277;BME280;4676;42.678;23.244;2022-09-29T04:57:13;93279.72;;;13.16;100.00
9277;BME280;4676;42.678;23.244;2022-09-29T04:59:40;93272.09;;;13.16;100.00
9277;BME280;4676;42.678;23.244;2022-09-29T05:02:07;93281.47;;;13.16;100.00
9277;BME280;4676;42.678;23.244;2022-09-29T05:04:33;93279.63;;;13.18;100.00
9277;BME280;4676;42.678;23.244;2022-09-29T05:07:01;93278.06;;;13.29;100.00
9277;BME280;4676;42.678;23.244;2022-09-29T05:09:28;93290.16;;;13.26;100.00
9277;BME280;4676;42.678;23.244;2022-09-29T05:11:55;93282.16;;;13.44;100.00
9277;BME280;4676;42.678;23.244;2022-09-29T05:14:21;93290.31;;;13.49;100.00
9277;BME280;4676;42.678;23.244;2022-09-29T05:16:48;93279.41;;;13.47;100.00
9277;BME280;4676;42.678;23.244;2022-09-29T05:19:15;93293.50;;;13.66;100.00
9277;BME280;4676;42.678;23.244;2022-09-29T05:21:41;93288.81;;;13.72;100.00
9277;BME280;4676;42.678;23.244;2022-09-29T05:24:09;93297.19;;;13.74;100.00
9277;BME280;4676;42.678;23.244;2022-09-29T05:26:36;93299.94;;;13.71;100.00
9277;BME280;4676;42.678;23.244;2022-09-29T05:29:03;93307.19;;;13.77;100.00
9277;BME280;4676;42.678;23.244;2022-09-29T05:31:30;93304.88;;;13.99;100.00
9277;BME280;4676;42.678;23.244;2022-09-29T05:33:57;93308.94;;;13.89;100.00
9277;BME280;4676;42.678;23.244;2022-09-29T05:36:23;93309.53;;;14.18;100.00
9277;BME280;4676;42.678;23.244;2022-09-29T05:38:50;93313.94;;;14.29;100.00
9277;BME280;4676;42.678;23.244;2022-09-29T05:41:18;93302.25;;;14.52;100.00
9277;BME280;4676;42.678;23.244;2022-09-29T05:43:48;93297.84;;;14.54;100.00
9277;BME280;4676;42.678;23.244;2022-09-29T05:46:15;93304.53;;;14.80;100.00
9277;BME280;4676;42.678;23.244;2022-09-29T05:48:44;93304.63;;;14.91;100.00
9277;BME280;4676;42.678;23.244;2022-09-29T05:51:13;93308.53;;;15.08;100.00
9277;BME280;4676;42.678;23.244;2022-09-29T05:53:40;93288.06;;;15.20;100.00
9277;BME280;4676;42.678;23.244;2022-09-29T05:56:09;93313.63;;;15.44;100.00
9277;BME280;4676;42.678;23.244;2022-09-29T05:58:38;93293.75;;;15.60;100.00
9277;BME280;4676;42.678;23.244;2022-09-29T06:01:05;93311.81;;;15.81;100.00
9277;BME280;4676;42.678;23.244;2022-09-29T06:03:33;93308.38;;;15.93;100.00
9277;BME280;4676;42.678;23.244;2022-09-29T06:06:07;93316.78;;;16.06;100.00
9277;BME280;4676;42.678;23.244;2022-09-29T06:08:34;93318.06;;;16.23;100.00
9277;BME280;4676;42.678;23.244;2022-09-29T06:11:03;93300.06;;;16.24;100.00
9277;BME280;4676;42.678;23.244;2022-09-29T06:13:30;93297.75;;;16.43;100.00
9277;BME280;4676;42.678;23.244;2022-09-29T06:15:59;93308.81;;;16.44;100.00
9277;BME280;4676;42.678;23.244;2022-09-29T06:18:26;93309.63;;;16.44;100.00
9277;BME280;4676;42.678;23.244;2022-09-29T06:20:53;93295.78;;;16.47;100.00
9277;BME280;4676;42.678;23.244;2022-09-29T06:23:19;93301.63;;;16.71;100.00
9277;BME280;4676;42.678;23.244;2022-09-29T06:25:46;93303.25;;;16.83;100.00
9277;BME280;4676;42.678;23.244;2022-09-29T06:28:13;93306.38;;;16.98;100.00
9277;BME280;4676;42.678;23.244;2022-09-29T06:30:39;93310.44;;;17.12;100.00
9277;BME280;4676;42.678;23.244;2022-09-29T06:33:08;93305.06;;;17.26;100.00
9277;BME280;4676;42.678;23.244;2022-09-29T06:35:35;93313.41;;;17.39;100.00
9277;BME280;4676;42.678;23.244;2022-09-29T06:38:19;93297.66;;;17.55;100.00
9277;BME280;4676;42.678;23.244;2022-09-29T06:40:46;93306.97;;;17.87;100.00
9277;BME280;4676;42.678;23.244;2022-09-29T06:43:12;93305.56;;;18.15;100.00
9277;BME280;4676;42.678;23.244;2022-09-29T06:45:39;93310.44;;;18.18;100.00
9277;BME280;4676;42.678;23.244;2022-09-29T06:48:08;93316.75;;;18.14;100.00
9277;BME280;4676;42.678;23.244;2022-09-29T06:50:35;93315.25;;;18.12;100.00
9277;BME280;4676;42.678;23.244;2022-09-29T06:53:02;93322.53;;;17.95;100.00
9277;BME280;4676;42.678;23.244;2022-09-29T06:55:29;93334.22;;;17.88;100.00
9277;BME280;4676;42.678;23.244;2022-09-29T06:57:55;93341.28;;;17.75;100.00
9277;BME280;4676;42.678;23.244;2022-09-29T07:00:22;93343.47;;;17.80;100.00
9277;BME280;4676;42.678;23.244;2022-09-29T07:02:49;93333.44;;;17.77;100.00
9277;BME280;4676;42.678;23.244;2022-09-29T07:05:17;93329.06;;;17.68;100.00
9277;BME280;4676;42.678;23.244;2022-09-29T07:07:46;93345.63;;;17.64;100.00
9277;BME280;4676;42.678;23.244;2022-09-29T07:10:13;93337.00;;;17.54;100.00
9277;BME280;4676;42.678;23.244;2022-09-29T07:12:41;93338.06;;;17.51;100.00
9277;BME280;4676;42.678;23.244;2022-09-29T07:15:11;93331.06;;;17.53;100.00
9277;BME280;4676;42.678;23.244;2022-09-29T07:17:38;93326.63;;;17.66;100.00
9277;BME280;4676;42.678;23.244;2022-09-29T07:20:05;93328.31;;;17.77;100.00
9277;BME280;4676;42.678;23.244;2022-09-29T07:22:33;93329.13;;;17.77;100.00
9277;BME280;4676;42.678;23.244;2022-09-29T07:25:00;93323.91;;;17.79;100.00
9277;BME280;4676;42.678;23.244;2022-09-29T07:27:27;93321.66;;;17.85;100.00
9277;BME280;4676;42.678;23.244;2022-09-29T07:29:53;93321.56;;;17.87;100.00
9277;BME280;4676;42.678;23.244;2022-09-29T07:32:20;93324.53;;;17.92;100.00
9277;BME280;4676;42.678;23.244;2022-09-29T07:34:46;93321.63;;;17.96;100.00
9277;BME280;4676;42.678;23.244;2022-09-29T07:37:13;93328.19;;;18.10;100.00
9277;BME280;4676;42.678;23.244;2022-09-29T07:39:41;93321.88;;;18.14;100.00
9277;BME280;4676;42.678;23.244;2022-09-29T07:42:08;93324.06;;;18.19;100.00
9277;BME280;4676;42.678;23.244;2022-09-29T07:44:35;93323.56;;;18.25;100.00
9277;BME280;4676;42.678;23.244;2022-09-29T07:47:01;93331.50;;;18.22;100.00
9277;BME280;4676;42.678;23.244;2022-09-29T07:49:28;93331.81;;;18.28;100.00
9277;BME280;4676;42.678;23.244;2022-09-29T07:51:55;93342.75;;;18.30;100.00
9277;BME280;4676;42.678;23.244;2022-09-29T07:54:21;93338.34;;;18.32;100.00
9277;BME280;4676;42.678;23.244;2022-09-29T07:56:52;93346.13;;;18.31;100.00
9277;BME280;4676;42.678;23.244;2022-09-29T07:59:19;93349.22;;;18.25;100.00
9277;BME280;4676;42.678;23.244;2022-09-29T08:01:46;93351.31;;;18.20;100.00
9277;BME280;4676;42.678;23.244;2022-09-29T08:04:13;93359.78;;;18.31;100.00
9277;BME280;4676;42.678;23.244;2022-09-29T08:06:39;93363.34;;;18.19;100.00
9277;BME280;4676;42.678;23.244;2022-09-29T08:09:07;93375.84;;;18.13;100.00
9277;BME280;4676;42.678;23.244;2022-09-29T08:11:37;93367.97;;;18.05;100.00
9277;BME280;4676;42.678;23.244;2022-09-29T08:14:06;93374.59;;;18.07;100.00
9277;BME280;4676;42.678;23.244;2022-09-29T08:16:33;93374.84;;;18.04;100.00
9277;BME280;4676;42.678;23.244;2022-09-29T08:19:00;93373.09;;;18.05;100.00
9277;BME280;4676;42.678;23.244;2022-09-29T08:21:28;93377.72;;;18.11;100.00
9277;BME280;4676;42.678;23.244;2022-09-29T08:23:56;93373.69;;;18.29;100.00
9277;BME280;4676;42.678;23.244;2022-09-29T08:26:27;93368.31;;;18.32;100.00
9277;BME280;4676;42.678;23.244;2022-09-29T08:28:53;93366.16;;;18.37;100.00
9277;BME280;4676;42.678;23.244;2022-09-29T08:31:21;93368.31;;;18.53;100.00
9277;BME280;4676;42.678;23.244;2022-09-29T08:33:49;93360.84;;;18.50;100.00
9277;BME280;4676;42.678;23.244;2022-09-29T08:36:17;93367.28;;;18.65;100.00
9277;BME280;4676;42.678;23.244;2022-09-29T08:38:46;93358.13;;;18.92;100.00
9277;BME280;4676;42.678;23.244;2022-09-29T08:41:24;93369.25;;;19.03;100.00
9277;BME280;4676;42.678;23.244;2022-09-29T08:43:59;93358.34;;;19.10;100.00
9277;BME280;4676;42.678;23.244;2022-09-29T08:46:33;93370.09;;;19.13;100.00
9277;BME280;4676;42.678;23.244;2022-09-29T08:49:04;93363.78;;;19.17;100.00
9277;BME280;4676;42.678;23.244;2022-09-29T08:51:35;93361.09;;;19.28;95.45
9277;BME280;4676;42.678;23.244;2022-09-29T08:54:12;93364.50;;;19.38;96.11
9277;BME280;4676;42.678;23.244;2022-09-29T08:56:41;93368.34;;;19.53;85.60
9277;BME280;4676;42.678;23.244;2022-09-29T08:59:08;93367.41;;;19.64;81.44
9277;BME280;4676;42.678;23.244;2022-09-29T09:01:49;93366.53;;;20.03;80.57
9277;BME280;4676;42.678;23.244;2022-09-29T09:04:39;93361.41;;;20.32;75.90
9277;BME280;4676;42.678;23.244;2022-09-29T09:07:17;93326.56;;;20.47;76.44
9277;BME280;4676;42.678;23.244;2022-09-29T09:09:54;93342.13;;;21.02;70.52
9277;BME280;4676;42.678;23.244;2022-09-29T09:12:52;93352.16;;;21.41;67.60
9277;BME280;4676;42.678;23.244;2022-09-29T09:15:48;93339.97;;;21.79;68.61
9277;BME280;4676;42.678;23.244;2022-09-29T09:21:17;93348.63;;;22.23;61.15
9277;BME280;4676;42.678;23.244;2022-09-29T09:23:52;93347.59;;;22.33;59.12
9277;BME280;4676;42.678;23.244;2022-09-29T09:26:26;93362.56;;;22.48;58.66
9277;BME280;4676;42.678;23.244;2022-09-29T09:29:00;93351.31;;;22.57;57.78
9277;BME280;4676;42.678;23.244;2022-09-29T09:31:32;93358.63;;;22.61;56.09
9277;BME280;4676;42.678;23.244;2022-09-29T09:34:05;93347.41;;;22.70;57.44
9277;BME280;4676;42.678;23.244;2022-09-29T09:36:39;93352.06;;;22.67;55.49
9277;BME280;4676;42.678;23.244;2022-09-29T09:39:12;93360.00;;;22.73;57.89
9277;BME280;4676;42.678;23.244;2022-09-29T09:41:41;93358.31;;;22.64;56.93
9277;BME280;4676;42.678;23.244;2022-09-29T09:44:12;93358.16;;;22.66;56.19
9277;BME280;4676;42.678;23.244;2022-09-29T09:46:44;93368.88;;;22.71;57.32
9277;BME280;4676;42.678;23.244;2022-09-29T09:49:19;93371.81;;;22.76;56.17
9277;BME280;4676;42.678;23.244;2022-09-29T09:51:54;93362.59;;;22.73;56.46
9277;BME280;4676;42.678;23.244;2022-09-29T09:54:27;93365.66;;;22.69;55.54
9277;BME280;4676;42.678;23.244;2022-09-29T09:57:10;93338.75;;;22.62;56.98
9277;BME280;4676;42.678;23.244;2022-09-29T09:59:51;93362.44;;;22.75;56.71
9277;BME280;4676;42.678;23.244;2022-09-29T10:02:21;93355.03;;;22.80;55.65
9277;BME280;4676;42.678;23.244;2022-09-29T10:04:51;93352.16;;;22.83;57.04
9277;BME280;4676;42.678;23.244;2022-09-29T10:07:21;93356.63;;;22.73;55.44
9277;BME280;4676;42.678;23.244;2022-09-29T10:09:48;93353.28;;;22.63;57.00
9277;BME280;4676;42.678;23.244;2022-09-29T10:12:16;93352.50;;;22.62;55.18
9277;BME280;4676;42.678;23.244;2022-09-29T10:14:49;93347.97;;;22.64;55.00
9277;BME280;4676;42.678;23.244;2022-09-29T10:17:20;93340.31;;;22.72;59.61
9277;BME280;4676;42.678;23.244;2022-09-29T10:19:55;93337.63;;;22.82;57.35
9277;BME280;4676;42.678;23.244;2022-09-29T10:22:23;93338.94;;;22.86;56.95
9277;BME280;4676;42.678;23.244;2022-09-29T10:27:28;93356.00;;;22.79;54.90
9277;BME280;4676;42.678;23.244;2022-09-29T10:29:55;93354.50;;;22.68;55.88
9277;BME280;4676;42.678;23.244;2022-09-29T10:32:26;93366.97;;;22.73;56.68
9277;BME280;4676;42.678;23.244;2022-09-29T10:35:06;93365.69;;;22.77;54.57
9277;BME280;4676;42.678;23.244;2022-09-29T10:37:36;93368.53;;;22.92;57.62
9277;BME280;4676;42.678;23.244;2022-09-29T10:40:14;93348.72;;;23.00;55.71
9277;BME280;4676;42.678;23.244;2022-09-29T10:42:44;93341.47;;;23.04;53.19
9277;BME280;4676;42.678;23.244;2022-09-29T10:45:15;93359.00;;;23.26;55.06
9277;BME280;4676;42.678;23.244;2022-09-29T10:47:44;93362.25;;;23.28;53.75
9277;BME280;4676;42.678;23.244;2022-09-29T10:50:15;93358.41;;;23.32;54.93
9277;BME280;4676;42.678;23.244;2022-09-29T10:52:46;93360.34;;;23.38;53.28
9277;BME280;4676;42.678;23.244;2022-09-29T10:55:19;93354.91;;;23.41;52.50
9277;BME280;4676;42.678;23.244;2022-09-29T10:57:47;93347.97;;;23.42;54.40
9277;BME280;4676;42.678;23.244;2022-09-29T11:00:24;93353.56;;;23.37;51.54
9277;BME280;4676;42.678;23.244;2022-09-29T11:02:52;93353.56;;;23.37;52.15
9277;BME280;4676;42.678;23.244;2022-09-29T11:05:22;93303.53;;;23.12;51.93
9277;BME280;4676;42.678;23.244;2022-09-29T11:07:50;93349.91;;;23.48;52.07
9277;BME280;4676;42.678;23.244;2022-09-29T11:10:26;93346.69;;;23.46;51.41
9277;BME280;4676;42.678;23.244;2022-09-29T11:12:53;93353.63;;;23.45;51.46
9277;BME280;4676;42.678;23.244;2022-09-29T11:15:27;93348.78;;;23.42;52.83
9277;BME280;4676;42.678;23.244;2022-09-29T11:17:55;93348.31;;;23.47;50.92
9277;BME280;4676;42.678;23.244;2022-09-29T11:20:28;93347.16;;;23.41;51.84
9277;BME280;4676;42.678;23.244;2022-09-29T11:23:21;93343.88;;;23.39;50.83
9277;BME280;4676;42.678;23.244;2022-09-29T11:26:02;93344.56;;;23.41;50.94
9277;BME280;4676;42.678;23.244;2022-09-29T11:28:46;93346.81;;;23.44;49.76
9277;BME280;4676;42.678;23.244;2022-09-29T11:31:25;93344.41;;;23.43;50.89
9277;BME280;4676;42.678;23.244;2022-09-29T11:34:02;93335.84;;;23.42;53.15
9277;BME280;4676;42.678;23.244;2022-09-29T11:36:42;93348.47;;;23.45;50.76
9277;BME280;4676;42.678;23.244;2022-09-29T11:39:24;93341.66;;;23.44;52.97
9277;BME280;4676;42.678;23.244;2022-09-29T11:42:02;93348.38;;;23.29;52.33
9277;BME280;4676;42.678;23.244;2022-09-29T11:44:56;93342.88;;;22.98;52.51
9277;BME280;4676;42.678;23.244;2022-09-29T11:47:42;93344.44;;;22.91;52.28
9277;BME280;4676;42.678;23.244;2022-09-29T11:50:20;93353.88;;;22.74;53.40
9277;BME280;4676;42.678;23.244;2022-09-29T11:53:07;93354.25;;;22.62;53.75
9277;BME280;4676;42.678;23.244;2022-09-29T11:55:45;93349.69;;;22.56;53.78
9277;BME280;4676;42.678;23.244;2022-09-29T11:58:29;93358.03;;;22.50;53.55
9277;BME280;4676;42.678;23.244;2022-09-29T12:01:08;93347.16;;;22.64;52.36
9277;BME280;4676;42.678;23.244;2022-09-29T12:03:42;93348.09;;;22.80;51.49
9277;BME280;4676;42.678;23.244;2022-09-29T12:06:35;93340.47;;;22.71;55.29
9277;BME280;4676;42.678;23.244;2022-09-29T12:09:19;93342.22;;;22.70;54.03
9277;BME280;4676;42.678;23.244;2022-09-29T12:11:54;93338.09;;;22.60;56.03
9277;BME280;4676;42.678;23.244;2022-09-29T12:14:32;93345.63;;;22.71;54.30
9277;BME280;4676;42.678;23.244;2022-09-29T12:17:08;93350.69;;;22.63;56.01
9277;BME280;4676;42.678;23.244;2022-09-29T12:19:38;93345.31;;;22.56;56.76
9277;BME280;4676;42.678;23.244;2022-09-29T12:22:09;93344.06;;;22.60;54.52
9277;BME280;4676;42.678;23.244;2022-09-29T12:24:43;93344.31;;;22.49;56.59
9277;BME280;4676;42.678;23.244;2022-09-29T12:27:14;93320.28;;;22.31;57.76
9277;BME280;4676;42.678;23.244;2022-09-29T12:29:44;93344.31;;;22.49;57.87
9277;BME280;4676;42.678;23.244;2022-09-29T12:32:15;93332.75;;;22.35;57.21
9277;BME280;4676;42.678;23.244;2022-09-29T12:34:45;93348.72;;;22.57;56.07
9277;BME280;4676;42.678;23.244;2022-09-29T12:37:18;93354.31;;;22.70;55.94
9277;BME280;4676;42.678;23.244;2022-09-29T12:39:56;93357.41;;;22.73;53.41
9277;BME280;4676;42.678;23.244;2022-09-29T12:42:39;93363.41;;;22.74;53.68
9277;BME280;4676;42.678;23.244;2022-09-29T12:45:15;93353.13;;;22.64;54.04
9277;BME280;4676;42.678;23.244;2022-09-29T12:47:55;93347.41;;;22.53;53.61
9277;BME280;4676;42.678;23.244;2022-09-29T12:50:28;93351.31;;;22.57;52.62
9277;BME280;4676;42.678;23.244;2022-09-29T12:52:59;93352.63;;;22.61;53.48
9277;BME280;4676;42.678;23.244;2022-09-29T12:55:40;93345.13;;;22.50;55.97
9277;BME280;4676;42.678;23.244;2022-09-29T12:58:14;93348.22;;;22.53;53.96
9277;BME280;4676;42.678;23.244;2022-09-29T13:00:50;93349.69;;;22.56;54.25
9277;BME280;4676;42.678;23.244;2022-09-29T13:09:54;93348.53;;;22.50;56.76
9277;BME280;4676;42.678;23.244;2022-09-29T13:12:36;93349.63;;;22.48;55.92
9277;BME280;4676;42.678;23.244;2022-09-29T13:15:23;93345.13;;;22.50;55.09
9277;BME280;4676;42.678;23.244;2022-09-29T13:18:14;93344.28;;;22.41;57.55
9277;BME280;4676;42.678;23.244;2022-09-29T13:21:04;93346.41;;;22.28;57.28
9277;BME280;4676;42.678;23.244;2022-09-29T13:23:55;93343.53;;;22.31;56.29
9277;BME280;4676;42.678;23.244;2022-09-29T13:26:33;93344.41;;;22.39;56.00
9277;BME280;4676;42.678;23.244;2022-09-29T13:29:10;93346.84;;;22.41;54.92
9277;BME280;4676;42.678;23.244;2022-09-29T13:31:40;93347.53;;;22.25;57.44
9277;BME280;4676;42.678;23.244;2022-09-29T13:34:18;93347.00;;;22.39;56.15
9277;BME280;4676;42.678;23.244;2022-09-29T13:36:46;93351.19;;;22.40;57.93
9277;BME280;4676;42.678;23.244;2022-09-29T13:39:20;93358.13;;;22.40;54.57
9277;BME280;4676;42.678;23.244;2022-09-29T13:41:51;93355.97;;;22.53;55.85